createdAt,value
2019-01-06T00:04:19.996Z,4.10
2019-01-06T00:07:24.268Z,4.10
2019-01-06T00:10:16.289Z,4.00
2019-01-06T00:13:07.939Z,4.00
2019-01-06T00:16:12.681Z,4.00
2019-01-06T00:19:12.073Z,4.00
2019-01-06T00:22:18.489Z,3.80
2019-01-06T00:25:13.468Z,4.00
2019-01-06T00:28:21.545Z,3.90
2019-01-06T00:31:02.667Z,3.70
2019-01-06T00:34:25.083Z,3.60
2019-01-06T00:37:29.798Z,3.60
2019-01-06T00:40:33.908Z,3.60
2019-01-06T00:43:38.143Z,3.70
2019-01-06T00:46:48.839Z,3.60
2019-01-06T00:50:02.342Z,3.50
2019-01-06T00:53:06.731Z,3.50
2019-01-06T00:56:10.902Z,3.70
2019-01-06T00:59:21.331Z,3.60
2019-01-06T01:02:25.406Z,3.60
2019-01-06T01:05:29.438Z,3.80
2019-01-06T01:08:21.091Z,3.80
2019-01-06T01:11:25.922Z,3.80
2019-01-06T01:14:30.091Z,3.90
2019-01-06T01:17:34.334Z,3.90
2019-01-06T01:20:44.540Z,4.00
2019-01-06T01:23:48.722Z,3.90
2019-01-06T01:26:52.929Z,3.80
2019-01-06T01:30:03.213Z,3.90
2019-01-06T01:33:07.563Z,3.80
2019-01-06T01:36:12.503Z,3.90
2019-01-06T01:39:16.633Z,3.70
2019-01-06T01:42:21.839Z,3.80
2019-01-06T01:45:19.263Z,3.80
2019-01-06T01:48:23.712Z,3.70
2019-01-06T01:51:28.695Z,3.80
2019-01-06T01:54:32.902Z,3.80
2019-01-06T01:57:37.190Z,3.90
2019-01-06T02:00:44.297Z,3.50
2019-01-06T02:03:48.430Z,3.50
2019-01-06T02:06:40.062Z,3.40
2019-01-06T02:09:44.804Z,3.40
2019-01-06T02:12:37.121Z,3.60
2019-01-06T02:15:29.091Z,3.50
2019-01-06T02:18:33.960Z,3.60
2019-01-06T02:21:38.256Z,3.50
2019-01-06T02:24:43.252Z,3.60
2019-01-06T02:27:47.952Z,3.60
2019-01-06T02:30:52.108Z,3.60
2019-01-06T02:33:49.195Z,3.60
2019-01-06T02:36:53.407Z,3.40
2019-01-06T02:39:57.963Z,3.40
2019-01-06T02:43:02.755Z,3.40
2019-01-06T02:46:07.004Z,3.40
2019-01-06T02:49:06.821Z,3.40
2019-01-06T02:51:58.476Z,3.30
2019-01-06T02:55:03.251Z,3.10
2019-01-06T02:58:08.195Z,3.20
2019-01-06T03:01:12.322Z,3.20
2019-01-06T03:04:16.663Z,3.40
2019-01-06T03:07:20.851Z,3.50
2019-01-06T03:10:25.414Z,3.50
2019-01-06T03:13:17.049Z,3.50
2019-01-06T03:16:21.899Z,3.60
2019-01-06T03:19:26.639Z,3.50
2019-01-06T03:22:30.912Z,3.70
2019-01-06T03:25:35.151Z,3.70
2019-01-06T03:28:39.295Z,3.70
2019-01-06T03:31:33.353Z,3.60
2019-01-06T03:34:38.617Z,3.70
2019-01-06T03:37:42.013Z,3.70
2019-01-06T03:40:46.156Z,3.80
2019-01-06T03:43:50.386Z,3.80
2019-01-06T03:46:52.152Z,3.70
2019-01-06T03:49:50.330Z,3.80
2019-01-06T03:52:58.021Z,3.80
2019-01-06T03:55:49.646Z,3.70
2019-01-06T03:58:41.455Z,3.30
2019-01-06T04:01:46.373Z,3.50
2019-01-06T04:04:57.287Z,3.60
2019-01-06T04:07:48.948Z,3.70
2019-01-06T04:10:54.831Z,3.50
2019-01-06T04:14:04.359Z,3.50
2019-01-06T04:17:08.649Z,3.50
2019-01-06T04:20:12.847Z,3.50
2019-01-06T04:23:12.843Z,3.60
2019-01-06T04:26:17.261Z,3.70
2019-01-06T04:29:24.433Z,3.60
2019-01-06T04:32:48.669Z,3.30
2019-01-06T04:35:59.915Z,3.10
2019-01-06T04:39:03.943Z,3.40
2019-01-06T04:42:08.157Z,3.60
2019-01-06T04:45:15.256Z,3.60
2019-01-06T04:48:19.478Z,3.60
2019-01-06T04:51:23.660Z,3.60
2019-01-06T04:54:26.964Z,3.70
2019-01-06T04:57:31.338Z,3.60
2019-01-06T05:00:53.014Z,3.80
2019-01-06T05:03:52.713Z,3.60
2019-01-06T05:06:58.425Z,3.50
2019-01-06T05:10:02.859Z,3.40
2019-01-06T05:13:02.387Z,3.50
2019-01-06T05:16:07.537Z,3.60
2019-01-06T05:19:18.391Z,3.30
2019-01-06T05:22:22.942Z,3.10
2019-01-06T05:25:34.056Z,3.00
2019-01-06T05:28:45.413Z,3.00
2019-01-06T05:31:50.414Z,3.30
2019-01-06T05:34:47.046Z,3.40
2019-01-06T05:37:51.808Z,3.50
2019-01-06T05:40:54.552Z,3.40
2019-01-06T05:43:59.298Z,3.00
2019-01-06T05:47:03.386Z,2.90
2019-01-06T05:49:59.126Z,3.00
2019-01-06T05:53:03.710Z,3.10
2019-01-06T05:56:07.941Z,2.90
2019-01-06T05:59:19.237Z,3.10
2019-01-06T06:02:23.314Z,3.10
2019-01-06T06:05:11.176Z,2.90
2019-01-06T06:08:15.531Z,3.00
2019-01-06T06:11:25.855Z,3.00
2019-01-06T06:14:36.991Z,3.00
2019-01-06T06:17:47.729Z,3.20
2019-01-06T06:20:59.438Z,3.30
2019-01-06T06:24:04.253Z,3.30
2019-01-06T06:27:08.054Z,3.30
2019-01-06T06:30:05.902Z,3.30
2019-01-06T06:39:27.940Z,3.60
2019-01-06T06:42:29.142Z,3.60
2019-01-06T06:45:25.354Z,3.70
2019-01-06T06:51:21.012Z,3.70
2019-01-06T06:54:25.145Z,3.60
2019-01-06T06:57:32.601Z,3.60
2019-01-06T07:00:39.919Z,3.50
2019-01-06T07:03:51.616Z,3.60
2019-01-06T07:06:43.250Z,3.60
2019-01-06T07:09:47.658Z,3.20
2019-01-06T07:12:52.559Z,3.10
2019-01-06T07:15:56.792Z,3.20
2019-01-06T07:19:01.343Z,3.20
2019-01-06T07:25:34.630Z,3.30
2019-01-06T07:28:39.805Z,3.40
2019-01-06T07:31:44.660Z,3.40
2019-01-06T07:34:48.989Z,3.50
2019-01-06T07:37:53.226Z,3.40
2019-01-06T07:40:58.233Z,3.30
2019-01-06T07:44:05.173Z,3.50
2019-01-06T07:47:09.719Z,3.50
2019-01-06T07:50:13.897Z,3.30
2019-01-06T07:53:14.368Z,3.30
2019-01-06T07:56:18.440Z,3.40
2019-01-06T07:59:22.685Z,3.50
2019-01-06T08:02:25.431Z,3.40
2019-01-06T08:05:30.372Z,3.40
2019-01-06T08:08:34.847Z,3.60
2019-01-06T08:14:56.201Z,3.50
2019-01-06T08:18:00.616Z,3.60
2019-01-06T08:21:07.699Z,3.40
2019-01-06T08:24:12.253Z,3.30
2019-01-06T08:27:16.396Z,3.30
2019-01-06T08:30:20.608Z,3.50
2019-01-06T08:33:24.763Z,3.20
2019-01-06T08:36:16.785Z,3.00
2019-01-06T08:39:28.011Z,3.20
2019-01-06T08:42:33.362Z,3.40
2019-01-06T08:45:38.714Z,3.10
2019-01-06T08:48:43.683Z,3.10
2019-01-06T08:51:48.697Z,3.30
2019-01-06T08:54:53.109Z,3.30
2019-01-06T08:57:57.259Z,3.40
2019-01-06T09:01:04.226Z,3.50
2019-01-06T09:04:08.668Z,3.70
2019-01-06T09:07:13.215Z,3.30
2019-01-06T09:13:09.522Z,3.50
2019-01-06T09:19:28.213Z,3.80
2019-01-06T09:22:30.514Z,4.00
2019-01-06T09:25:22.477Z,3.80
2019-01-06T09:28:30.055Z,3.80
2019-01-06T09:31:40.967Z,4.00
2019-01-06T09:34:45.619Z,4.10
2019-01-06T09:37:49.692Z,4.20
2019-01-06T09:40:53.836Z,4.20
2019-01-06T09:43:49.840Z,4.40
2019-01-06T09:47:00.205Z,4.40
2019-01-06T09:50:04.321Z,4.50
2019-01-06T09:53:14.590Z,4.50
2019-01-06T09:56:18.715Z,4.40
2019-01-06T09:59:18.538Z,4.60
2019-01-06T10:02:25.995Z,4.40
2019-01-06T10:05:30.240Z,4.40
2019-01-06T10:08:34.445Z,4.40
2019-01-06T10:11:38.664Z,4.20
2019-01-06T10:14:45.791Z,4.40
2019-01-06T10:17:50.073Z,4.50
2019-01-06T10:20:54.243Z,4.60
2019-01-06T10:23:58.480Z,4.60
2019-01-06T10:27:03.041Z,4.60
2019-01-06T10:30:07.878Z,4.50
2019-01-06T10:33:12.007Z,4.70
2019-01-06T10:36:03.794Z,4.90
2019-01-06T10:39:08.243Z,4.80
2019-01-06T10:42:12.730Z,4.50
2019-01-06T10:45:24.289Z,4.20
2019-01-06T10:48:49.721Z,4.40
2019-01-06T10:52:00.441Z,4.80
2019-01-06T10:55:04.584Z,4.70
2019-01-06T10:58:08.651Z,4.60
2019-01-06T11:01:12.809Z,4.60
2019-01-06T11:04:18.183Z,4.70
2019-01-06T11:07:22.857Z,4.70
2019-01-06T11:10:14.633Z,4.60
2019-01-06T11:13:10.686Z,4.70
2019-01-06T11:16:15.204Z,4.50
2019-01-06T11:21:58.922Z,4.50
2019-01-06T11:25:03.159Z,4.40
2019-01-06T11:28:07.408Z,4.40
2019-01-06T11:31:11.616Z,4.80
2019-01-06T11:34:03.485Z,4.80
2019-01-06T11:37:11.044Z,5.00
2019-01-06T11:40:15.326Z,5.00
2019-01-06T11:43:20.378Z,5.00
2019-01-06T11:46:24.802Z,5.00
2019-01-06T11:49:28.943Z,5.00
2019-01-06T11:52:36.448Z,5.10
2019-01-06T11:55:42.026Z,5.20
2019-01-06T11:58:46.652Z,5.10
2019-01-06T12:01:45.061Z,5.20
2019-01-06T12:04:49.606Z,5.10
2019-01-06T12:07:53.635Z,4.60
2019-01-06T12:10:57.814Z,4.70
2019-01-06T12:14:02.088Z,4.70
2019-01-06T12:17:13.603Z,4.90
2019-01-06T12:20:18.206Z,5.10
2019-01-06T12:23:23.293Z,5.00
2019-01-06T12:26:31.131Z,5.20
2019-01-06T12:29:36.203Z,5.00
2019-01-06T12:32:41.307Z,5.20
2019-01-06T12:35:51.343Z,5.00
2019-01-06T12:39:02.873Z,5.00
2019-01-06T12:42:14.021Z,5.20
2019-01-06T12:45:18.039Z,5.00
2019-01-06T12:48:15.984Z,4.90
2019-01-06T12:51:20.831Z,4.80
2019-01-06T12:54:23.739Z,4.70
2019-01-06T12:57:27.812Z,4.80
2019-01-06T13:00:34.254Z,4.90
2019-01-06T13:03:39.173Z,4.70
2019-01-06T13:06:43.231Z,4.90
2019-01-06T13:09:47.883Z,4.70
2019-01-06T13:12:52.642Z,4.70
2019-01-06T13:15:44.332Z,4.80
2019-01-06T13:18:49.149Z,4.90
2019-01-06T13:21:54.210Z,4.80
2019-01-06T13:24:58.489Z,4.80
2019-01-06T13:28:02.710Z,4.80
2019-01-06T13:31:06.022Z,4.50
2019-01-06T13:34:04.712Z,4.40
2019-01-06T13:37:09.515Z,4.60
2019-01-06T13:40:13.766Z,4.60
2019-01-06T13:43:17.905Z,4.70
2019-01-06T13:46:22.631Z,4.90
2019-01-06T13:49:26.662Z,5.00
2019-01-06T13:52:18.374Z,4.80
2019-01-06T13:55:24.614Z,4.90
2019-01-06T13:58:30.627Z,4.90
2019-01-06T14:01:45.835Z,4.70
2019-01-06T14:04:56.944Z,4.70
2019-01-06T14:08:01.052Z,4.80
2019-01-06T14:11:05.446Z,4.90
2019-01-06T14:17:22.302Z,5.10
2019-01-06T14:20:26.832Z,5.00
2019-01-06T14:23:21.320Z,4.90
2019-01-06T14:26:32.384Z,4.80
2019-01-06T14:29:36.563Z,4.90
2019-01-06T14:32:41.292Z,4.90
2019-01-06T14:35:46.213Z,5.00
2019-01-06T14:38:50.469Z,4.90
2019-01-06T14:41:54.817Z,4.90
2019-01-06T14:44:51.122Z,4.70
2019-01-06T14:47:55.267Z,4.80
2019-01-06T14:50:56.636Z,4.80
2019-01-06T14:54:08.077Z,4.80
2019-01-06T14:57:12.631Z,4.60
2019-01-06T15:00:18.617Z,4.80
2019-01-06T15:03:25.742Z,4.70
2019-01-06T15:06:40.081Z,4.80
2019-01-06T15:09:44.376Z,4.80
2019-01-06T15:12:43.826Z,4.80
2019-01-06T15:15:51.080Z,4.70
2019-01-06T15:18:55.599Z,4.70
2019-01-06T15:22:00.127Z,4.70
2019-01-06T15:25:05.398Z,4.70
2019-01-06T15:28:10.448Z,4.70
2019-01-06T15:31:14.682Z,4.60
2019-01-06T15:34:21.923Z,4.70
2019-01-06T15:37:26.287Z,4.60
2019-01-06T15:40:30.384Z,4.40
2019-01-06T15:43:37.292Z,4.40
2019-01-06T15:46:45.847Z,4.40
2019-01-06T15:49:57.066Z,4.60
2019-01-06T15:53:01.190Z,4.50
2019-01-06T15:56:05.343Z,4.50
2019-01-06T15:59:09.424Z,4.50
2019-01-06T16:02:19.884Z,4.50
2019-01-06T16:05:11.630Z,4.30
2019-01-06T16:08:16.202Z,4.40
2019-01-06T16:11:20.442Z,4.20
2019-01-06T16:14:12.450Z,4.30
2019-01-06T16:17:04.206Z,4.20
2019-01-06T16:20:08.843Z,4.30
2019-01-06T16:23:12.974Z,4.20
2019-01-06T16:26:17.320Z,4.30
2019-01-06T16:29:21.454Z,4.50
2019-01-06T16:32:25.598Z,4.50
2019-01-06T16:35:29.672Z,4.30
2019-01-06T16:38:33.929Z,4.40
2019-01-06T16:41:38.068Z,4.60
2019-01-06T16:44:42.324Z,4.50
2019-01-06T16:47:46.559Z,4.60
2019-01-06T16:50:50.698Z,4.50
2019-01-06T16:53:55.642Z,4.20
2019-01-06T16:57:00.074Z,4.30
2019-01-06T17:00:05.081Z,4.40
2019-01-06T17:03:09.363Z,4.40
2019-01-06T17:06:14.371Z,4.50
2019-01-06T17:09:18.707Z,4.70
2019-01-06T17:12:22.716Z,4.40
2019-01-06T17:15:27.589Z,4.50
2019-01-06T17:18:32.242Z,4.40
2019-01-06T17:21:37.077Z,4.60
2019-01-06T17:24:44.270Z,4.60
2019-01-06T17:27:48.590Z,4.60
2019-01-06T17:30:59.419Z,4.30
2019-01-06T17:34:03.757Z,4.20
2019-01-06T17:37:08.170Z,4.30
2019-01-06T17:40:12.475Z,4.10
2019-01-06T17:43:16.658Z,3.90
2019-01-06T17:46:20.831Z,4.10
2019-01-06T17:49:25.041Z,4.20
2019-01-06T17:52:29.654Z,4.10
2019-01-06T17:55:40.966Z,4.10
2019-01-06T17:58:45.667Z,4.20
2019-01-06T18:01:53.083Z,4.00
2019-01-06T18:04:56.377Z,4.10
2019-01-06T18:08:10.813Z,3.90
2019-01-06T18:11:20.706Z,4.20
2019-01-06T18:14:24.194Z,4.00
2019-01-06T18:17:28.400Z,4.30
2019-01-06T18:20:25.210Z,4.10
2019-01-06T18:23:37.037Z,4.20
2019-01-06T18:26:41.956Z,4.30
2019-01-06T18:29:46.030Z,4.20
2019-01-06T18:32:43.657Z,4.30
2019-01-06T18:35:48.279Z,4.20
2019-01-06T18:38:50.698Z,4.30
2019-01-06T18:41:55.464Z,4.40
2019-01-06T18:44:59.556Z,4.30
2019-01-06T18:48:06.494Z,4.20
2019-01-06T18:51:17.004Z,4.20
2019-01-06T18:54:41.125Z,4.10
2019-01-06T18:57:46.178Z,4.20
2019-01-06T19:00:51.111Z,4.30
2019-01-06T19:03:55.591Z,4.40
2019-01-06T19:07:00.646Z,4.40
2019-01-06T19:10:04.688Z,4.30
2019-01-06T19:13:08.790Z,4.10
2019-01-06T19:16:12.943Z,4.00
2019-01-06T19:19:17.315Z,4.10
2019-01-06T19:22:22.065Z,4.20
2019-01-06T19:25:26.482Z,4.00
2019-01-06T19:28:31.112Z,4.20
2019-01-06T19:31:35.665Z,4.20
2019-01-06T19:34:40.886Z,4.00
2019-01-06T19:37:45.863Z,4.20
2019-01-06T19:40:49.949Z,4.20
2019-01-06T19:43:57.095Z,4.30
2019-01-06T19:46:59.375Z,4.00
2019-01-06T19:50:10.706Z,3.90
2019-01-06T19:53:14.755Z,4.10
2019-01-06T19:56:19.097Z,4.20
2019-01-06T19:59:23.275Z,4.20
2019-01-06T20:02:27.693Z,4.20
2019-01-06T20:05:32.623Z,4.00
2019-01-06T20:08:37.552Z,4.20
2019-01-06T20:11:42.186Z,4.20
2019-01-06T20:14:47.319Z,4.20
2019-01-06T20:17:58.118Z,4.10
2019-01-06T20:21:02.678Z,4.20
2019-01-06T20:24:03.968Z,4.20
2019-01-06T20:27:08.394Z,4.20
2019-01-06T20:30:19.837Z,4.30
2019-01-06T20:33:37.124Z,4.00
2019-01-06T20:36:48.084Z,4.00
2019-01-06T20:39:53.763Z,3.70
2019-01-06T20:43:18.573Z,4.00
2019-01-06T20:46:24.064Z,4.00
2019-01-06T20:49:26.387Z,4.10
2019-01-06T20:52:41.376Z,4.00
2019-01-06T20:55:47.311Z,4.00
2019-01-06T20:58:51.923Z,4.20
2019-01-06T21:01:59.797Z,4.20
2019-01-06T21:05:04.746Z,4.10
2019-01-06T21:08:03.969Z,3.90
2019-01-06T21:11:08.516Z,4.10
2019-01-06T21:14:13.520Z,4.20
2019-01-06T21:17:18.453Z,4.10
2019-01-06T21:20:15.078Z,4.00
2019-01-06T21:23:21.080Z,3.70
2019-01-06T21:26:25.634Z,4.10
2019-01-06T21:29:30.216Z,3.80
2019-01-06T21:32:35.242Z,3.70
2019-01-06T21:35:39.967Z,3.80
2019-01-06T21:38:48.127Z,3.80
2019-01-06T21:41:52.624Z,3.60
2019-01-06T21:44:57.465Z,3.50
2019-01-06T21:48:01.782Z,3.60
2019-01-06T21:51:08.868Z,3.70
2019-01-06T21:54:04.643Z,3.30
2019-01-06T21:57:08.806Z,3.20
2019-01-06T22:00:09.434Z,3.20
2019-01-06T22:03:10.752Z,3.10
2019-01-06T22:06:15.217Z,3.20
2019-01-06T22:09:20.090Z,3.10
2019-01-06T22:12:18.806Z,3.00
2019-01-06T22:15:23.735Z,2.80
2019-01-06T22:18:28.746Z,2.90
2019-01-06T22:21:26.395Z,2.80
2019-01-06T22:24:30.699Z,3.20
2019-01-06T22:27:40.723Z,3.50
2019-01-06T22:30:45.045Z,3.50
2019-01-06T22:33:49.705Z,3.20
2019-01-06T22:36:41.358Z,3.20
2019-01-06T22:39:36.577Z,3.40
2019-01-06T22:42:41.442Z,3.30
2019-01-06T22:45:46.614Z,3.00
2019-01-06T22:48:50.668Z,3.20
2019-01-06T22:51:54.829Z,3.20
2019-01-06T22:54:58.846Z,3.10
2019-01-06T22:58:03.068Z,3.20
2019-01-06T23:00:47.263Z,3.30
2019-01-06T23:03:48.397Z,3.10
2019-01-06T23:06:59.363Z,3.30
2019-01-06T23:10:00.398Z,3.10
2019-01-06T23:13:11.996Z,3.10
2019-01-06T23:16:16.837Z,3.10
2019-01-06T23:19:21.218Z,3.10
2019-01-06T23:22:25.478Z,3.20
2019-01-06T23:25:35.978Z,3.40
2019-01-06T23:28:40.811Z,3.50
2019-01-06T23:34:47.069Z,3.40
2019-01-06T23:37:54.505Z,3.30
2019-01-06T23:40:58.584Z,3.30
2019-01-06T23:44:08.506Z,3.20
2019-01-06T23:47:24.904Z,3.20
2019-01-06T23:50:31.224Z,3.20
2019-01-06T23:53:36.121Z,3.20
2019-01-06T23:56:40.301Z,3.30
2019-01-06T23:59:44.357Z,3.20
